createdAt,value
2022-12-25T00:00:54.247Z,1.33
2022-12-25T00:03:20.778Z,1.30
2022-12-25T00:05:47.371Z,1.00
2022-12-25T00:08:13.939Z,1.00
2022-12-25T00:10:45.318Z,0.90
2022-12-25T00:13:12.052Z,0.77
2022-12-25T00:15:39.691Z,0.70
2022-12-25T00:18:06.044Z,0.70
2022-12-25T00:20:32.579Z,0.80
2022-12-25T00:22:59.074Z,0.85
2022-12-25T00:25:25.436Z,0.77
2022-12-25T00:27:51.989Z,1.02
2022-12-25T00:30:18.543Z,1.17
2022-12-25T00:32:44.963Z,1.10
2022-12-25T00:35:11.360Z,1.35
2022-12-25T00:37:37.650Z,1.77
2022-12-25T00:40:04.150Z,1.42
2022-12-25T00:42:30.607Z,1.20
2022-12-25T00:44:56.935Z,1.85
2022-12-25T00:47:23.442Z,1.65
2022-12-25T00:49:49.790Z,1.58
2022-12-25T00:52:16.092Z,1.80
2022-12-25T00:54:42.501Z,1.90
2022-12-25T00:57:08.904Z,2.25
2022-12-25T00:59:35.458Z,1.58
2022-12-25T01:02:21.976Z,1.48
2022-12-25T01:04:49.234Z,1.10
2022-12-25T01:07:16.952Z,1.23
2022-12-25T01:10:02.555Z,1.73
2022-12-25T01:12:29.288Z,1.38
2022-12-25T01:14:55.613Z,1.40
2022-12-25T01:17:22.292Z,1.50
2022-12-25T01:19:48.595Z,1.38
2022-12-25T01:22:16.274Z,1.90
2022-12-25T01:24:43.909Z,1.73
2022-12-25T01:27:10.715Z,1.65
2022-12-25T01:29:37.460Z,1.88
2022-12-25T01:32:04.182Z,1.15
2022-12-25T01:34:30.632Z,1.35
2022-12-25T01:36:57.008Z,1.80
2022-12-25T01:39:23.468Z,1.52
2022-12-25T01:41:49.920Z,1.83
2022-12-25T01:44:16.423Z,1.20
2022-12-25T01:46:43.470Z,1.45
2022-12-25T01:49:13.023Z,1.80
2022-12-25T01:51:41.995Z,1.55
2022-12-25T01:54:11.668Z,1.38
2022-12-25T01:56:39.877Z,1.10
2022-12-25T01:59:08.261Z,1.48
2022-12-25T02:01:34.786Z,0.85
2022-12-25T02:04:39.786Z,1.10
2022-12-25T02:07:06.160Z,1.90
2022-12-25T02:09:32.938Z,1.85
2022-12-25T02:12:00.195Z,1.80
2022-12-25T02:14:27.953Z,2.17
2022-12-25T02:17:02.123Z,1.77
2022-12-25T02:19:28.599Z,1.60
2022-12-25T02:22:13.644Z,1.83
2022-12-25T02:24:49.160Z,1.85
2022-12-25T02:27:23.972Z,1.42
2022-12-25T02:30:02.700Z,1.58
2022-12-25T02:32:32.785Z,1.35
2022-12-25T02:35:01.898Z,1.13
2022-12-25T02:37:32.670Z,0.70
2022-12-25T02:40:02.218Z,1.10
2022-12-25T02:42:59.449Z,1.00
2022-12-25T02:45:44.758Z,1.45
2022-12-25T02:48:30.621Z,1.65
2022-12-25T02:51:15.740Z,1.20
2022-12-25T02:54:01.007Z,1.40
2022-12-25T02:56:46.495Z,1.10
2022-12-25T02:59:33.494Z,1.30
2022-12-25T03:02:29.734Z,1.35
2022-12-25T03:05:15.692Z,1.60
2022-12-25T03:07:42.690Z,1.75
2022-12-25T03:10:29.198Z,1.70
2022-12-25T03:12:55.537Z,1.60
2022-12-25T03:15:40.685Z,1.00
2022-12-25T03:18:08.797Z,1.02
2022-12-25T03:20:54.247Z,0.85
2022-12-25T03:23:41.014Z,0.77
2022-12-25T03:26:26.070Z,0.82
2022-12-25T03:28:52.375Z,1.20
2022-12-25T03:31:22.439Z,2.00
2022-12-25T03:34:13.444Z,1.45
2022-12-25T03:37:05.228Z,1.40
2022-12-25T03:39:56.002Z,1.33
2022-12-25T03:42:43.385Z,1.42
2022-12-25T03:45:35.255Z,1.25
2022-12-25T03:48:13.395Z,1.10
2022-12-25T03:51:11.264Z,1.50
2022-12-25T03:54:05.158Z,1.80
2022-12-25T03:56:51.115Z,2.20
2022-12-25T03:59:39.335Z,1.85
2022-12-25T04:02:24.454Z,1.60
2022-12-25T04:05:09.706Z,1.80
2022-12-25T04:07:54.508Z,2.30
2022-12-25T04:10:39.344Z,2.70
2022-12-25T04:13:24.391Z,3.30
2022-12-25T04:16:12.392Z,2.50
2022-12-25T04:18:57.680Z,3.72
2022-12-25T04:21:43.271Z,3.20
2022-12-25T04:24:28.858Z,2.88
2022-12-25T04:27:14.430Z,2.72
2022-12-25T04:29:59.349Z,3.10
2022-12-25T04:32:44.491Z,3.17
2022-12-25T04:35:29.655Z,2.60
2022-12-25T04:37:56.671Z,2.60
2022-12-25T04:40:23.034Z,2.72
2022-12-25T04:42:52.664Z,2.67
2022-12-25T04:45:19.379Z,2.10
2022-12-25T04:47:45.797Z,1.90
2022-12-25T04:50:12.191Z,1.88
2022-12-25T04:52:39.455Z,2.30
2022-12-25T04:55:06.594Z,2.92
2022-12-25T04:57:33.095Z,1.92
2022-12-25T04:59:59.595Z,2.20
2022-12-25T05:02:26.265Z,1.70
2022-12-25T05:04:52.847Z,1.45
2022-12-25T05:07:19.202Z,2.03
2022-12-25T05:09:45.561Z,1.77
2022-12-25T05:12:12.505Z,2.10
2022-12-25T05:14:39.996Z,1.90
2022-12-25T05:17:07.949Z,2.33
2022-12-25T05:19:34.403Z,2.50
2022-12-25T05:22:00.894Z,2.17
2022-12-25T05:24:30.145Z,2.05
2022-12-25T05:26:56.646Z,2.55
2022-12-25T05:29:23.028Z,2.80
2022-12-25T05:31:49.384Z,2.00
2022-12-25T05:34:15.837Z,2.13
2022-12-25T05:36:42.178Z,1.80
2022-12-25T05:39:08.603Z,1.90
2022-12-25T05:41:35.124Z,1.65
2022-12-25T05:44:01.580Z,2.08
2022-12-25T05:46:27.965Z,2.50
2022-12-25T05:48:54.349Z,1.85
2022-12-25T05:51:20.758Z,2.25
2022-12-25T05:53:47.154Z,2.38
2022-12-25T05:56:13.626Z,2.47
2022-12-25T05:58:40.616Z,1.98
2022-12-25T06:01:23.418Z,1.70
2022-12-25T06:03:49.922Z,1.83
2022-12-25T06:06:16.342Z,2.00
2022-12-25T06:08:42.906Z,2.17
2022-12-25T06:11:10.263Z,2.17
2022-12-25T06:13:36.874Z,2.17
2022-12-25T06:16:04.233Z,2.22
2022-12-25T06:18:30.775Z,2.25
2022-12-25T06:20:57.118Z,1.95
2022-12-25T06:23:23.626Z,2.00
2022-12-25T06:25:50.026Z,2.25
2022-12-25T06:28:16.392Z,1.90
2022-12-25T06:30:42.850Z,2.13
2022-12-25T06:33:09.137Z,1.63
2022-12-25T06:35:38.490Z,1.77
2022-12-25T06:38:04.940Z,1.58
2022-12-25T06:40:31.282Z,1.50
2022-12-25T06:42:57.697Z,1.50
2022-12-25T06:45:24.287Z,1.63
2022-12-25T06:47:50.674Z,1.55
2022-12-25T06:50:17.109Z,1.42
2022-12-25T06:52:43.472Z,1.38
2022-12-25T06:55:09.938Z,1.02
2022-12-25T06:57:36.379Z,1.50
2022-12-25T07:00:03.593Z,1.67
2022-12-25T07:02:31.244Z,1.50
2022-12-25T07:04:58.133Z,1.35
2022-12-25T07:07:24.565Z,1.52
2022-12-25T07:09:50.993Z,1.85
2022-12-25T07:12:21.308Z,1.77
2022-12-25T07:14:50.120Z,1.80
2022-12-25T08:23:48.250Z,1.00
2022-12-25T08:26:16.854Z,1.02
2022-12-25T08:28:43.456Z,1.20
2022-12-25T08:31:24.107Z,0.90
2022-12-25T08:33:52.192Z,2.08
2022-12-25T08:36:19.001Z,2.85
2022-12-25T08:38:45.394Z,3.55
2022-12-25T08:41:12.383Z,2.80
2022-12-25T08:43:39.420Z,2.67
2022-12-25T08:46:06.674Z,2.90
2022-12-25T08:48:33.075Z,2.83
2022-12-25T08:50:59.780Z,2.78
2022-12-25T08:53:26.179Z,2.70
2022-12-25T08:56:04.438Z,3.28
2022-12-25T08:58:31.118Z,4.03
2022-12-25T09:00:57.614Z,3.53
2022-12-25T09:03:24.374Z,3.40
2022-12-25T09:05:51.268Z,3.38
2022-12-25T09:08:17.756Z,4.00
2022-12-25T09:10:44.078Z,3.17
2022-12-25T09:13:10.601Z,3.72
2022-12-25T09:15:38.172Z,3.22
2022-12-25T09:18:04.795Z,3.55
2022-12-25T09:20:31.153Z,2.80
2022-12-25T09:22:57.584Z,2.80
2022-12-25T09:25:23.909Z,2.60
2022-12-25T09:27:50.283Z,2.97
2022-12-25T09:30:17.017Z,3.45
2022-12-25T09:32:43.344Z,3.60
2022-12-25T09:35:10.497Z,3.58
2022-12-25T09:37:36.903Z,4.10
2022-12-25T09:40:03.471Z,3.78
2022-12-25T09:42:37.209Z,3.17
2022-12-25T09:45:26.964Z,4.30
2022-12-25T09:47:56.127Z,4.18
2022-12-25T09:50:28.784Z,3.75
2022-12-25T09:52:59.720Z,4.50
2022-12-25T09:55:27.199Z,3.97
2022-12-25T09:57:58.085Z,3.80
2022-12-25T10:00:25.775Z,3.88
2022-12-25T10:03:04.302Z,3.17
2022-12-25T10:05:39.941Z,2.53
2022-12-25T10:08:15.851Z,3.40
2022-12-25T10:10:53.010Z,3.60
2022-12-25T10:13:30.145Z,2.60
2022-12-25T10:15:56.607Z,3.10
2022-12-25T10:18:37.374Z,2.47
2022-12-25T10:21:11.066Z,2.88
2022-12-25T10:23:41.387Z,3.15
2022-12-25T10:26:15.432Z,3.78
2022-12-25T10:28:44.315Z,3.85
2022-12-25T10:31:30.794Z,3.95
2022-12-25T10:33:59.926Z,3.55
2022-12-25T10:36:27.645Z,3.35
2022-12-25T10:38:54.125Z,3.60
2022-12-25T10:41:23.477Z,3.00
2022-12-25T10:43:51.515Z,2.78
2022-12-25T10:46:18.914Z,2.80
2022-12-25T10:48:59.440Z,3.88
2022-12-25T10:51:38.879Z,4.47
2022-12-25T10:54:25.541Z,3.20
2022-12-25T10:56:59.353Z,3.70
2022-12-25T10:59:27.719Z,3.30
2022-12-25T11:01:55.568Z,3.15
2022-12-25T11:04:26.418Z,2.97
2022-12-25T11:06:56.987Z,3.10
2022-12-25T11:09:24.027Z,3.63
2022-12-25T11:11:51.631Z,2.92
2022-12-25T11:14:20.994Z,2.67
2022-12-25T11:16:48.970Z,2.58
2022-12-25T11:19:33.610Z,3.05
2022-12-25T11:22:02.155Z,3.05
2022-12-25T11:24:29.480Z,3.03
2022-12-25T11:26:57.192Z,3.20
2022-12-25T11:29:29.607Z,2.88
2022-12-25T11:31:57.979Z,3.22
2022-12-25T11:34:27.123Z,3.30
2022-12-25T11:36:53.504Z,2.97
2022-12-25T11:39:28.681Z,2.58
2022-12-25T11:42:01.449Z,2.60
2022-12-25T11:44:35.159Z,2.33
2022-12-25T11:47:08.445Z,1.95
2022-12-25T11:49:38.767Z,2.42
2022-12-25T11:52:06.592Z,2.22
2022-12-25T11:54:39.817Z,3.03
2022-12-25T11:57:06.506Z,2.20
2022-12-25T11:59:56.075Z,4.15
2022-12-25T12:02:41.472Z,4.18
2022-12-25T12:05:19.450Z,4.22
2022-12-25T12:07:56.915Z,3.90
2022-12-25T12:10:42.069Z,4.20
2022-12-25T12:13:11.547Z,4.13
2022-12-25T12:15:44.890Z,4.13
2022-12-25T12:18:20.527Z,3.30
2022-12-25T12:20:57.422Z,2.72
2022-12-25T12:23:24.070Z,2.95
2022-12-25T12:25:50.849Z,3.10
2022-12-25T12:28:27.629Z,2.85
2022-12-25T12:30:58.354Z,2.90
2022-12-25T12:33:27.105Z,3.00
2022-12-25T12:35:53.584Z,2.53
2022-12-25T12:38:21.224Z,2.63
2022-12-25T12:40:56.013Z,1.80
2022-12-25T12:43:31.468Z,1.90
2022-12-25T12:46:03.184Z,2.72
2022-12-25T12:48:29.836Z,2.63
2022-12-25T12:51:03.448Z,2.97
2022-12-25T12:53:31.250Z,3.42
2022-12-25T12:56:08.184Z,3.47
2022-12-25T12:58:35.688Z,3.05
2022-12-25T13:01:08.185Z,2.70
2022-12-25T13:03:39.727Z,2.75
2022-12-25T13:06:27.353Z,3.00
2022-12-25T13:09:12.199Z,2.90
2022-12-25T13:11:43.152Z,2.60
2022-12-25T13:14:14.961Z,3.22
2022-12-25T13:16:42.435Z,3.10
2022-12-25T13:19:12.520Z,3.10
2022-12-25T13:21:39.055Z,3.35
2022-12-25T13:24:19.383Z,3.10
2022-12-25T13:26:45.830Z,4.22
2022-12-25T13:29:33.668Z,3.65
2022-12-25T13:32:00.990Z,3.75
2022-12-25T13:34:27.454Z,3.45
2022-12-25T13:36:54.266Z,4.13
2022-12-25T13:39:20.734Z,3.35
2022-12-25T13:42:06.686Z,2.92
2022-12-25T13:44:44.277Z,2.90
2022-12-25T13:47:21.663Z,3.28
2022-12-25T13:49:48.841Z,3.00
2022-12-25T13:52:17.373Z,3.25
2022-12-25T13:54:53.948Z,3.28
2022-12-25T13:57:21.144Z,2.92
2022-12-25T13:59:47.471Z,2.50
2022-12-25T14:02:22.700Z,2.80
2022-12-25T14:04:49.089Z,2.58
2022-12-25T14:07:18.378Z,2.75
2022-12-25T14:09:44.891Z,3.35
2022-12-25T14:12:17.358Z,3.22
2022-12-25T14:14:45.737Z,3.00
2022-12-25T14:17:12.234Z,3.80
2022-12-25T14:19:38.598Z,2.92
2022-12-25T14:22:10.756Z,2.47
2022-12-25T14:24:37.805Z,2.88
2022-12-25T14:27:06.106Z,2.85
2022-12-25T14:29:36.711Z,3.10
2022-12-25T14:32:07.608Z,3.17
2022-12-25T14:34:34.239Z,2.90
2022-12-25T14:37:01.471Z,2.63
2022-12-25T14:39:32.525Z,2.97
2022-12-25T14:41:59.825Z,2.60
2022-12-25T14:44:29.274Z,3.10
2022-12-25T14:47:10.759Z,3.35
2022-12-25T14:49:37.454Z,3.00
2022-12-25T14:52:09.275Z,2.70
2022-12-25T14:54:36.581Z,2.75
2022-12-25T14:57:03.081Z,2.50
2022-12-25T14:59:29.447Z,2.50
2022-12-25T15:01:57.023Z,2.70
2022-12-25T15:04:23.933Z,3.28
2022-12-25T15:06:54.593Z,3.70
2022-12-25T15:09:21.539Z,3.57
2022-12-25T15:11:52.114Z,3.55
2022-12-25T15:14:18.614Z,3.75
2022-12-25T15:16:46.958Z,2.78
2022-12-25T15:19:23.378Z,3.10
2022-12-25T15:21:51.749Z,3.15
2022-12-25T15:24:18.390Z,3.15
2022-12-25T15:26:44.730Z,3.72
2022-12-25T15:29:11.021Z,3.45
2022-12-25T15:31:38.875Z,4.10
2022-12-25T15:34:07.951Z,3.53
2022-12-25T15:36:34.638Z,3.95
2022-12-25T15:39:00.991Z,3.70
2022-12-25T15:41:50.707Z,4.68
2022-12-25T15:44:17.620Z,5.55
2022-12-25T15:46:45.880Z,5.28
2022-12-25T15:49:12.680Z,5.05
2022-12-25T15:51:39.470Z,4.95
2022-12-25T15:54:05.881Z,4.13
2022-12-25T15:56:43.402Z,4.25
2022-12-25T15:59:11.322Z,4.40
2022-12-25T16:01:37.744Z,3.63
2022-12-25T16:04:04.529Z,6.07
2022-12-25T16:06:30.898Z,4.70
2022-12-25T16:08:57.205Z,3.80
2022-12-25T16:11:23.527Z,3.70
2022-12-25T16:13:49.854Z,3.30
2022-12-25T16:16:16.205Z,3.20
2022-12-25T16:18:47.419Z,3.10
2022-12-25T16:21:16.589Z,3.47
2022-12-25T16:23:43.402Z,3.10
2022-12-25T16:26:09.912Z,3.55
2022-12-25T16:28:36.341Z,4.20
2022-12-25T16:31:02.954Z,3.70
2022-12-25T16:33:29.316Z,4.25
2022-12-25T16:35:55.595Z,3.55
2022-12-25T16:38:22.114Z,3.72
2022-12-25T16:40:54.129Z,3.75
2022-12-25T16:45:50.439Z,3.50
2022-12-25T16:48:16.827Z,3.95
2022-12-25T16:50:43.254Z,4.13
2022-12-25T16:53:10.330Z,4.00
2022-12-25T16:55:39.724Z,4.10
2022-12-25T16:58:06.693Z,4.15
2022-12-25T17:00:33.088Z,3.83
2022-12-25T17:03:00.268Z,3.65
2022-12-25T17:05:26.813Z,4.05
2022-12-25T17:07:53.267Z,4.68
2022-12-25T17:10:21.291Z,4.53
2022-12-25T17:12:47.893Z,4.65
2022-12-25T17:15:14.301Z,4.45
2022-12-25T17:17:40.921Z,4.78
2022-12-25T17:20:07.691Z,5.30
2022-12-25T17:22:34.099Z,4.90
2022-12-25T17:25:00.441Z,4.47
2022-12-25T17:27:26.792Z,5.47
2022-12-25T17:29:53.331Z,5.43
2022-12-25T17:32:19.836Z,5.05
2022-12-25T17:34:46.789Z,4.50
2022-12-25T17:37:13.240Z,4.78
2022-12-25T17:39:39.626Z,5.00
2022-12-25T17:42:06.181Z,4.53
2022-12-25T17:44:32.571Z,4.72
2022-12-25T17:46:58.947Z,4.35
2022-12-25T17:49:25.573Z,5.15
2022-12-25T17:51:53.577Z,4.78
2022-12-25T17:54:19.924Z,5.10
2022-12-25T17:56:46.437Z,4.53
2022-12-25T17:59:17.924Z,4.30
2022-12-25T18:01:45.250Z,4.82
2022-12-25T18:04:11.774Z,4.65
2022-12-25T18:06:38.253Z,4.95
2022-12-25T18:09:06.112Z,4.82
2022-12-25T18:11:33.173Z,4.47
2022-12-25T18:14:01.265Z,4.47
2022-12-25T18:16:27.827Z,4.53
2022-12-25T18:18:54.177Z,4.13
2022-12-25T18:21:21.699Z,4.40
2022-12-25T18:23:48.315Z,4.35
2022-12-25T18:26:14.860Z,3.60
2022-12-25T18:28:42.706Z,5.28
2022-12-25T18:31:32.456Z,4.20
2022-12-25T18:34:00.007Z,4.25
2022-12-25T18:36:27.267Z,4.57
2022-12-25T18:38:54.181Z,5.60
2022-12-25T18:41:21.169Z,4.45
2022-12-25T18:43:52.123Z,4.32
2022-12-25T18:46:24.245Z,4.22
2022-12-25T18:48:51.071Z,3.88
2022-12-25T18:51:17.508Z,3.85
2022-12-25T18:53:44.032Z,3.72
2022-12-25T18:56:12.319Z,4.10
2022-12-25T18:58:38.802Z,5.18
2022-12-25T19:01:12.248Z,4.45
2022-12-25T19:03:38.726Z,4.72
2022-12-25T19:06:05.115Z,4.90
2022-12-25T19:08:31.619Z,4.07
2022-12-25T19:10:57.916Z,3.75
2022-12-25T19:13:24.257Z,4.18
2022-12-25T19:15:50.638Z,3.63
2022-12-25T19:18:16.913Z,3.70
2022-12-25T19:20:43.333Z,3.40
2022-12-25T19:23:09.865Z,3.92
2022-12-25T19:25:38.357Z,4.18
2022-12-25T19:28:04.795Z,4.32
2022-12-25T19:30:31.257Z,4.50
2022-12-25T19:32:57.541Z,4.32
2022-12-25T19:35:24.027Z,4.68
2022-12-25T19:37:50.474Z,3.30
2022-12-25T19:40:16.888Z,3.75
2022-12-25T19:42:43.217Z,4.18
2022-12-25T19:45:09.751Z,3.88
2022-12-25T19:47:36.169Z,4.95
2022-12-25T19:50:03.609Z,4.72
2022-12-25T19:52:30.350Z,4.50
2022-12-25T19:54:56.742Z,4.28
2022-12-25T19:57:23.098Z,3.53
2022-12-25T19:59:49.753Z,4.03
2022-12-25T20:02:16.114Z,3.85
2022-12-25T20:04:42.584Z,4.13
2022-12-25T20:07:08.974Z,3.58
2022-12-25T20:09:35.301Z,4.90
2022-12-25T20:12:02.136Z,3.67
2022-12-25T20:14:28.534Z,4.45
2022-12-25T20:16:54.908Z,4.20
2022-12-25T20:19:21.329Z,4.07
2022-12-25T20:21:47.972Z,4.18
2022-12-25T20:24:14.396Z,5.10
2022-12-25T20:26:40.859Z,4.15
2022-12-25T20:29:07.425Z,4.00
2022-12-25T20:31:35.046Z,4.80
2022-12-25T20:34:05.119Z,4.70
2022-12-25T20:36:36.616Z,6.00
2022-12-25T20:39:04.510Z,4.57
2022-12-25T20:41:30.950Z,5.45
2022-12-25T20:43:57.457Z,4.80
2022-12-25T20:46:24.564Z,4.15
2022-12-25T20:48:51.897Z,4.00
2022-12-25T20:51:19.934Z,4.32
2022-12-25T20:53:47.740Z,4.28
2022-12-25T20:56:14.771Z,4.32
2022-12-25T20:58:41.375Z,4.28
2022-12-25T21:01:10.113Z,4.55
2022-12-25T21:03:36.649Z,4.82
2022-12-25T21:06:03.337Z,4.10
2022-12-25T21:08:30.314Z,4.80
2022-12-25T21:11:00.645Z,3.92
2022-12-25T21:13:29.384Z,3.67
2022-12-25T21:15:56.381Z,3.60
2022-12-25T21:18:24.141Z,3.50
2022-12-25T21:20:52.499Z,3.90
2022-12-25T21:23:19.900Z,4.00
2022-12-25T21:25:46.857Z,4.00
2022-12-25T21:28:13.358Z,3.83
2022-12-25T21:30:40.037Z,3.67
2022-12-25T21:33:25.043Z,4.00
2022-12-25T21:35:51.409Z,3.50
2022-12-25T21:38:17.840Z,3.50
2022-12-25T21:40:44.315Z,4.25
2022-12-25T21:43:16.725Z,3.42
2022-12-25T21:45:43.108Z,4.10
2022-12-25T21:48:09.513Z,3.28
2022-12-25T21:51:12.164Z,3.38
2022-12-25T21:53:39.079Z,3.92
2022-12-25T21:56:05.805Z,3.85
2022-12-25T21:58:32.206Z,3.45
2022-12-25T22:01:02.176Z,3.97
2022-12-25T22:03:28.732Z,3.38
2022-12-25T22:06:21.416Z,3.50
2022-12-25T22:08:48.201Z,3.40
2022-12-25T22:11:33.381Z,3.50
2022-12-25T22:14:18.149Z,3.35
2022-12-25T22:17:03.398Z,3.10
2022-12-25T22:19:45.069Z,2.58
2022-12-25T22:22:11.906Z,3.47
2022-12-25T22:24:38.616Z,2.92
2022-12-25T22:27:04.958Z,2.45
2022-12-25T22:29:31.390Z,2.70
2022-12-25T22:31:57.774Z,2.42
2022-12-25T22:34:24.172Z,2.72
2022-12-25T22:36:50.635Z,2.38
2022-12-25T22:39:16.997Z,2.20
2022-12-25T22:41:43.345Z,2.00
2022-12-25T22:44:18.096Z,2.20
2022-12-25T22:46:44.981Z,2.00
2022-12-25T22:49:11.517Z,2.08
2022-12-25T22:51:37.868Z,2.00
2022-12-25T22:54:04.234Z,2.50
2022-12-25T22:56:30.859Z,2.22
2022-12-25T22:58:57.185Z,2.10
2022-12-25T23:01:23.551Z,2.03
2022-12-25T23:03:54.007Z,2.03
2022-12-25T23:06:20.875Z,2.13
2022-12-25T23:08:47.861Z,2.13
2022-12-25T23:11:14.365Z,2.08
2022-12-25T23:13:59.228Z,2.20
2022-12-25T23:16:25.630Z,2.00
2022-12-25T23:19:10.548Z,2.13
2022-12-25T23:21:55.848Z,2.05
2022-12-25T23:24:40.644Z,1.80
2022-12-25T23:27:07.114Z,1.92
2022-12-25T23:29:36.503Z,2.00
2022-12-25T23:32:09.057Z,2.00
2022-12-25T23:34:36.529Z,1.80
2022-12-25T23:37:02.895Z,2.15
2022-12-25T23:39:29.560Z,1.65
2022-12-25T23:41:56.084Z,1.95
2022-12-25T23:44:22.469Z,2.20
2022-12-25T23:46:52.957Z,1.85
2022-12-25T23:49:20.514Z,1.90
2022-12-25T23:51:47.037Z,2.10
2022-12-25T23:54:15.134Z,2.13
2022-12-25T23:56:41.636Z,2.97
2022-12-25T23:59:08.291Z,3.00
